createdAt,value
2019-03-19T00:00:30.500Z,78.87
2019-03-19T00:03:03.455Z,78.65
2019-03-19T00:05:35.326Z,79.07
2019-03-19T00:08:06.996Z,79.08
2019-03-19T00:10:38.303Z,79.08
2019-03-19T00:13:09.650Z,79.11
2019-03-19T00:15:41.021Z,78.71
2019-03-19T00:18:12.595Z,79.00
2019-03-19T00:20:44.037Z,79.03
2019-03-19T00:23:15.713Z,78.63
2019-03-19T00:25:47.459Z,78.77
2019-03-19T00:28:19.575Z,78.79
2019-03-19T00:30:52.220Z,78.57
2019-03-19T00:33:23.536Z,78.39
2019-03-19T00:35:55.764Z,78.78
2019-03-19T00:38:27.522Z,78.46
2019-03-19T00:40:59.677Z,78.32
2019-03-19T00:43:31.661Z,78.51
2019-03-19T00:46:03.506Z,78.64
2019-03-19T00:48:34.780Z,78.49
2019-03-19T00:51:06.722Z,78.48
2019-03-19T00:53:38.506Z,78.77
2019-03-19T00:56:10.043Z,78.29
2019-03-19T00:58:42.178Z,78.66
2019-03-19T01:01:14.114Z,79.07
2019-03-19T01:03:45.484Z,78.81
2019-03-19T01:06:17.111Z,78.99
2019-03-19T01:08:49.179Z,78.56
2019-03-19T01:11:20.555Z,78.90
2019-03-19T01:13:51.904Z,78.55
2019-03-19T01:16:23.261Z,78.72
2019-03-19T01:18:54.831Z,79.25
2019-03-19T01:21:26.279Z,79.44
2019-03-19T01:23:57.906Z,78.73
2019-03-19T01:26:29.285Z,78.78
2019-03-19T01:29:01.706Z,79.31
2019-03-19T01:31:35.007Z,79.10
2019-03-19T01:34:06.690Z,78.66
2019-03-19T01:36:38.338Z,78.66
2019-03-19T01:39:09.792Z,78.89
2019-03-19T01:41:41.496Z,78.67
2019-03-19T01:44:12.796Z,78.40
2019-03-19T01:46:44.289Z,78.50
2019-03-19T01:49:15.984Z,78.78
2019-03-19T01:51:50.712Z,78.70
2019-03-19T01:54:22.287Z,78.79
2019-03-19T01:56:53.575Z,78.24
2019-03-19T01:59:24.961Z,79.07
2019-03-19T02:01:56.606Z,79.09
2019-03-19T02:04:27.920Z,78.89
2019-03-19T02:06:59.631Z,78.88
2019-03-19T02:09:31.669Z,79.25
2019-03-19T02:12:03.021Z,78.53
2019-03-19T02:14:34.351Z,79.06
2019-03-19T02:17:05.851Z,78.86
2019-03-19T02:19:38.447Z,79.46
2019-03-19T02:22:09.923Z,79.26
2019-03-19T02:24:41.709Z,79.39
2019-03-19T02:27:13.784Z,79.17
2019-03-19T02:29:45.095Z,78.94
2019-03-19T02:32:17.535Z,78.85
2019-03-19T02:34:49.538Z,78.87
2019-03-19T02:37:20.900Z,79.39
2019-03-19T02:39:53.645Z,79.14
2019-03-19T02:42:25.337Z,79.18
2019-03-19T02:44:57.005Z,78.84
2019-03-19T02:47:28.482Z,79.27
2019-03-19T02:50:00.380Z,78.96
2019-03-19T02:52:31.773Z,79.34
2019-03-19T02:55:03.144Z,79.54
2019-03-19T02:57:35.049Z,79.69
2019-03-19T03:00:07.540Z,79.75
2019-03-19T03:02:39.983Z,79.50
2019-03-19T03:05:13.730Z,80.12
2019-03-19T03:07:45.851Z,80.53
2019-03-19T03:10:19.020Z,80.63
2019-03-19T03:12:53.001Z,80.65
2019-03-19T03:15:24.942Z,80.68
2019-03-19T03:17:56.964Z,80.96
2019-03-19T03:20:28.638Z,80.92
2019-03-19T03:23:00.385Z,81.24
2019-03-19T03:25:31.840Z,81.99
2019-03-19T03:28:03.074Z,81.43
2019-03-19T03:30:34.315Z,81.21
2019-03-19T03:33:05.893Z,80.97
2019-03-19T03:35:37.529Z,80.82
2019-03-19T03:38:08.799Z,81.09
2019-03-19T03:40:40.153Z,80.57
2019-03-19T03:43:12.376Z,80.98
2019-03-19T03:45:43.974Z,80.87
2019-03-19T03:48:15.691Z,80.29
2019-03-19T03:50:48.713Z,80.39
2019-03-19T03:53:19.935Z,80.61
2019-03-19T04:02:04.458Z,80.74
2019-03-19T04:04:35.962Z,80.61
2019-03-19T04:07:07.235Z,80.52
2019-03-19T04:09:38.495Z,80.50
2019-03-19T04:12:09.996Z,80.28
2019-03-19T04:14:42.381Z,80.27
2019-03-19T04:17:14.340Z,80.24
2019-03-19T04:19:45.911Z,79.97
2019-03-19T04:22:17.432Z,80.31
2019-03-19T04:24:49.291Z,80.66
2019-03-19T04:27:20.828Z,80.65
2019-03-19T04:29:52.064Z,80.73
2019-03-19T04:32:23.349Z,80.50
2019-03-19T04:34:55.200Z,80.84
2019-03-19T04:37:26.472Z,80.77
2019-03-19T04:39:58.046Z,80.61
2019-03-19T04:42:29.301Z,81.08
2019-03-19T04:45:00.961Z,81.44
2019-03-19T04:47:32.617Z,81.40
2019-03-19T04:50:04.799Z,81.33
2019-03-19T04:52:36.326Z,81.65
2019-03-19T04:55:08.451Z,81.23
2019-03-19T04:57:39.654Z,81.54
2019-03-19T05:00:11.688Z,81.92
2019-03-19T05:02:44.195Z,82.37
2019-03-19T05:05:15.814Z,81.73
2019-03-19T05:07:47.043Z,82.24
2019-03-19T05:10:18.333Z,81.67
2019-03-19T05:12:49.571Z,82.33
2019-03-19T05:15:20.782Z,82.41
2019-03-19T05:17:53.082Z,82.67
2019-03-19T05:20:24.349Z,82.01
2019-03-19T05:22:55.561Z,82.38
2019-03-19T05:25:26.806Z,82.06
2019-03-19T05:27:58.328Z,82.22
2019-03-19T05:30:34.314Z,82.37
2019-03-19T05:33:06.532Z,82.37
2019-03-19T05:35:37.733Z,81.84
2019-03-19T05:38:08.959Z,82.22
2019-03-19T05:40:41.503Z,82.71
2019-03-19T05:43:12.685Z,83.05
2019-03-19T05:45:45.042Z,82.80
2019-03-19T05:48:16.299Z,83.23
2019-03-19T05:50:47.832Z,82.61
2019-03-19T05:53:19.346Z,83.08
2019-03-19T05:55:50.661Z,82.77
2019-03-19T05:58:22.033Z,83.23
2019-03-19T06:00:54.465Z,83.80
2019-03-19T06:03:26.391Z,83.54
2019-03-19T06:05:57.621Z,84.07
2019-03-19T06:08:29.408Z,84.09
2019-03-19T06:11:00.718Z,84.09
2019-03-19T06:13:32.867Z,83.73
2019-03-19T06:16:04.418Z,83.94
2019-03-19T06:18:35.863Z,83.80
2019-03-19T06:21:07.255Z,83.75
2019-03-19T06:23:38.495Z,83.56
2019-03-19T06:26:10.003Z,83.53
2019-03-19T06:28:41.245Z,84.12
2019-03-19T06:31:12.460Z,83.37
2019-03-19T06:33:44.413Z,83.64
2019-03-19T06:36:15.664Z,83.51
2019-03-19T06:38:47.568Z,83.47
2019-03-19T06:41:18.812Z,82.52
2019-03-19T06:43:50.010Z,82.78
2019-03-19T06:46:21.538Z,82.35
2019-03-19T06:48:53.551Z,82.55
2019-03-19T06:51:25.504Z,82.58
2019-03-19T06:53:57.079Z,82.86
2019-03-19T06:56:28.624Z,82.74
2019-03-19T06:59:00.448Z,82.59
2019-03-19T07:01:32.296Z,82.14
2019-03-19T07:04:03.668Z,81.55
2019-03-19T07:06:35.188Z,81.73
2019-03-19T07:09:09.703Z,82.21
2019-03-19T07:11:41.663Z,81.91
2019-03-19T07:14:12.926Z,81.70
2019-03-19T07:16:44.181Z,80.99
2019-03-19T07:19:15.746Z,80.71
2019-03-19T07:21:47.007Z,80.09
2019-03-19T07:24:18.881Z,80.11
2019-03-19T07:26:50.434Z,79.85
2019-03-19T07:29:21.997Z,79.30
2019-03-19T07:31:53.540Z,79.16
2019-03-19T07:34:25.019Z,79.21
2019-03-19T07:36:56.525Z,79.12
2019-03-19T07:39:27.736Z,79.77
2019-03-19T07:41:58.991Z,79.53
2019-03-19T07:44:30.576Z,79.99
2019-03-19T07:47:02.159Z,79.57
2019-03-19T07:49:33.754Z,79.91
2019-03-19T07:52:04.971Z,79.78
2019-03-19T07:54:38.384Z,79.69
2019-03-19T07:57:10.463Z,79.83
2019-03-19T07:59:42.320Z,78.92
2019-03-19T08:02:15.393Z,78.86
2019-03-19T08:04:47.072Z,79.44
2019-03-19T08:07:18.335Z,78.98
2019-03-19T08:09:49.884Z,78.82
2019-03-19T08:12:22.112Z,78.52
2019-03-19T08:14:53.879Z,78.34
2019-03-19T08:17:25.465Z,78.39
2019-03-19T08:19:57.295Z,77.82
2019-03-19T08:22:29.211Z,77.43
2019-03-19T08:25:00.762Z,77.72
2019-03-19T08:27:32.226Z,77.66
2019-03-19T08:30:03.610Z,77.04
2019-03-19T08:32:34.902Z,77.41
2019-03-19T08:35:07.143Z,77.24
2019-03-19T08:37:39.299Z,77.08
2019-03-19T08:40:12.171Z,76.65
2019-03-19T08:42:44.273Z,75.89
2019-03-19T08:45:15.735Z,76.37
2019-03-19T08:47:47.309Z,75.44
2019-03-19T08:50:18.925Z,74.84
2019-03-19T08:52:50.271Z,73.35
2019-03-19T08:55:21.494Z,72.18
2019-03-19T08:57:52.759Z,73.61
2019-03-19T09:00:24.028Z,71.28
2019-03-19T09:02:55.810Z,71.67
2019-03-19T09:05:27.747Z,71.17
2019-03-19T09:08:00.056Z,70.98
2019-03-19T09:10:31.569Z,71.64
2019-03-19T09:13:02.810Z,71.06
2019-03-19T09:15:34.413Z,70.95
2019-03-19T09:18:05.724Z,71.45
2019-03-19T09:20:37.092Z,70.87
2019-03-19T09:23:08.329Z,71.10
2019-03-19T09:25:39.545Z,70.78
2019-03-19T09:28:11.111Z,70.59
2019-03-19T09:30:42.725Z,70.15
2019-03-19T09:33:14.013Z,69.85
2019-03-19T09:35:45.379Z,69.84
2019-03-19T09:38:16.587Z,70.02
2019-03-19T09:40:48.111Z,69.19
2019-03-19T09:43:19.375Z,68.88
2019-03-19T09:45:50.573Z,68.85
2019-03-19T09:48:21.831Z,68.80
2019-03-19T09:50:53.725Z,67.84
2019-03-19T09:53:25.277Z,67.56
2019-03-19T09:55:56.866Z,66.74
2019-03-19T09:58:28.109Z,67.84
2019-03-19T10:00:59.653Z,67.63
2019-03-19T10:03:31.272Z,65.40
2019-03-19T10:06:13.655Z,64.91
2019-03-19T10:08:36.367Z,63.97
2019-03-19T10:11:08.064Z,64.92
2019-03-19T10:13:39.671Z,64.60
2019-03-19T10:16:11.359Z,64.24
2019-03-19T10:18:42.629Z,62.65
2019-03-19T10:21:13.904Z,63.19
2019-03-19T10:23:45.487Z,62.44
2019-03-19T10:26:17.331Z,62.57
2019-03-19T10:28:48.916Z,63.07
2019-03-19T10:31:20.171Z,61.51
2019-03-19T10:33:52.141Z,61.09
2019-03-19T10:36:25.258Z,61.62
2019-03-19T10:38:56.825Z,59.39
2019-03-19T10:41:28.666Z,57.79
2019-03-19T10:44:00.311Z,56.63
2019-03-19T10:46:31.872Z,57.00
2019-03-19T10:49:03.779Z,56.50
2019-03-19T10:51:35.325Z,55.76
2019-03-19T10:54:06.788Z,54.66
2019-03-19T10:56:39.033Z,54.30
2019-03-19T10:59:10.743Z,54.08
2019-03-19T11:01:42.240Z,54.81
2019-03-19T11:04:14.152Z,53.87
2019-03-19T11:06:45.821Z,55.18
2019-03-19T11:09:17.172Z,55.69
2019-03-19T11:11:48.646Z,55.11
2019-03-19T11:14:20.221Z,54.23
2019-03-19T11:16:51.654Z,55.69
2019-03-19T11:19:22.873Z,54.26
2019-03-19T11:21:54.126Z,54.92
2019-03-19T11:24:25.675Z,54.08
2019-03-19T11:26:57.231Z,54.19
2019-03-19T11:29:29.177Z,51.67
2019-03-19T11:32:01.167Z,51.44
2019-03-19T11:34:33.153Z,51.44
2019-03-19T11:37:04.922Z,51.03
2019-03-19T11:39:36.189Z,51.48
2019-03-19T11:42:08.206Z,52.05
2019-03-19T11:44:42.787Z,52.08
2019-03-19T11:47:14.310Z,51.24
2019-03-19T11:49:45.517Z,50.35
2019-03-19T11:52:17.182Z,49.85
2019-03-19T11:54:48.738Z,49.90
2019-03-19T11:57:19.975Z,49.45
2019-03-19T11:59:52.284Z,48.19
2019-03-19T12:02:26.141Z,48.84
2019-03-19T12:04:57.276Z,50.75
2019-03-19T12:07:28.787Z,49.50
2019-03-19T12:10:01.108Z,49.20
2019-03-19T12:12:32.320Z,50.51
2019-03-19T12:15:03.727Z,50.12
2019-03-19T12:17:35.016Z,49.13
2019-03-19T12:20:06.981Z,49.25
2019-03-19T12:22:38.254Z,50.67
2019-03-19T12:25:10.265Z,50.53
2019-03-19T12:27:41.502Z,51.09
2019-03-19T12:30:21.647Z,50.53
2019-03-19T12:32:46.791Z,51.53
2019-03-19T12:35:19.668Z,49.50
2019-03-19T12:37:50.955Z,49.69
2019-03-19T12:40:22.371Z,49.75
2019-03-19T12:42:53.722Z,50.86
2019-03-19T12:45:25.050Z,50.07
2019-03-19T12:47:56.272Z,50.51
2019-03-19T12:50:27.610Z,49.89
2019-03-19T12:52:59.340Z,50.76
2019-03-19T12:55:31.436Z,50.12
2019-03-19T12:58:03.191Z,49.98
2019-03-19T13:00:35.155Z,48.74
2019-03-19T13:03:07.406Z,48.27
2019-03-19T13:05:38.647Z,48.69
2019-03-19T13:08:10.707Z,48.27
2019-03-19T13:10:42.322Z,48.75
2019-03-19T13:13:13.891Z,50.27
2019-03-19T13:15:45.247Z,47.64
2019-03-19T13:18:16.777Z,47.54
2019-03-19T13:20:47.991Z,48.34
2019-03-19T13:23:19.276Z,49.84
2019-03-19T13:25:50.845Z,49.15
2019-03-19T13:28:22.365Z,49.76
2019-03-19T13:30:53.643Z,51.85
2019-03-19T13:33:25.206Z,51.98
2019-03-19T13:35:56.449Z,51.88
2019-03-19T13:38:27.686Z,53.14
2019-03-19T13:40:58.939Z,52.95
2019-03-19T13:43:30.122Z,52.79
2019-03-19T13:46:02.011Z,52.48
2019-03-19T13:48:34.131Z,52.57
2019-03-19T13:51:06.109Z,53.19
2019-03-19T13:53:37.345Z,53.19
2019-03-19T13:56:08.652Z,54.13
2019-03-19T13:58:39.864Z,54.25
2019-03-19T14:01:11.107Z,54.56
2019-03-19T14:03:42.431Z,54.06
2019-03-19T14:06:14.777Z,53.88
2019-03-19T14:08:46.126Z,54.19
2019-03-19T14:11:17.882Z,54.06
2019-03-19T14:13:49.714Z,53.60
2019-03-19T14:16:20.954Z,53.12
2019-03-19T14:18:52.422Z,54.08
2019-03-19T14:21:23.963Z,52.46
2019-03-19T14:23:55.820Z,52.84
2019-03-19T14:26:27.012Z,51.83
2019-03-19T14:28:58.196Z,51.86
2019-03-19T14:31:29.436Z,52.07
2019-03-19T14:34:02.767Z,51.49
2019-03-19T14:36:34.145Z,51.24
2019-03-19T14:39:08.313Z,51.21
2019-03-19T14:41:40.156Z,50.92
2019-03-19T14:44:11.732Z,50.58
2019-03-19T14:46:42.990Z,50.87
2019-03-19T14:49:14.202Z,51.39
2019-03-19T14:51:45.474Z,50.73
2019-03-19T14:54:16.698Z,49.88
2019-03-19T14:56:47.932Z,50.39
2019-03-19T14:59:19.163Z,49.71
2019-03-19T15:01:50.724Z,51.32
2019-03-19T15:04:22.011Z,51.08
2019-03-19T15:06:53.856Z,51.07
2019-03-19T15:09:25.140Z,50.41
2019-03-19T15:11:56.355Z,51.02
2019-03-19T15:14:27.574Z,51.09
2019-03-19T15:17:04.851Z,51.39
2019-03-19T15:19:32.330Z,51.04
2019-03-19T15:22:03.670Z,52.08
2019-03-19T15:24:34.910Z,51.46
2019-03-19T15:27:06.211Z,52.64
2019-03-19T15:29:37.968Z,51.72
2019-03-19T15:32:09.793Z,51.86
2019-03-19T15:34:41.019Z,52.17
2019-03-19T15:37:12.220Z,52.35
2019-03-19T15:39:43.550Z,50.96
2019-03-19T15:42:14.792Z,51.76
2019-03-19T15:44:46.336Z,51.33
2019-03-19T15:47:18.188Z,50.38
2019-03-19T15:49:49.411Z,52.07
2019-03-19T15:52:20.954Z,51.39
2019-03-19T15:54:52.225Z,50.31
2019-03-19T15:57:24.126Z,51.75
2019-03-19T15:59:55.319Z,51.52
2019-03-19T16:02:26.599Z,51.79
2019-03-19T16:04:58.126Z,51.55
2019-03-19T16:07:29.732Z,52.25
2019-03-19T16:10:01.144Z,51.94
2019-03-19T16:12:32.683Z,52.12
2019-03-19T16:15:04.576Z,51.83
2019-03-19T16:17:36.131Z,52.83
2019-03-19T16:20:10.068Z,52.68
2019-03-19T16:22:41.296Z,52.65
2019-03-19T16:25:13.170Z,53.90
2019-03-19T16:27:44.818Z,53.56
2019-03-19T16:30:16.707Z,54.22
2019-03-19T16:32:48.019Z,53.70
2019-03-19T16:35:19.228Z,54.20
2019-03-19T16:37:50.506Z,53.59
2019-03-19T16:40:22.433Z,54.17
2019-03-19T16:42:53.675Z,54.35
2019-03-19T16:45:24.902Z,54.83
2019-03-19T16:47:56.159Z,55.13
2019-03-19T16:50:27.532Z,55.17
2019-03-19T16:52:59.065Z,56.14
2019-03-19T16:55:30.442Z,56.57
2019-03-19T16:58:02.292Z,56.93
2019-03-19T17:00:33.868Z,56.80
2019-03-19T17:03:05.446Z,57.15
2019-03-19T17:05:36.994Z,57.74
2019-03-19T17:08:08.378Z,57.70
2019-03-19T17:10:39.619Z,58.09
2019-03-19T17:13:12.503Z,58.10
2019-03-19T17:15:43.798Z,58.96
2019-03-19T17:18:15.047Z,58.95
2019-03-19T17:20:46.284Z,59.14
2019-03-19T17:23:17.482Z,59.71
2019-03-19T17:25:48.778Z,59.71
2019-03-19T17:28:22.742Z,59.96
2019-03-19T17:30:53.381Z,60.26
2019-03-19T17:33:25.547Z,60.77
2019-03-19T17:35:56.769Z,60.75
2019-03-19T17:38:28.283Z,60.94
2019-03-19T17:40:59.759Z,61.60
2019-03-19T17:43:32.806Z,61.47
2019-03-19T17:46:04.445Z,61.83
2019-03-19T17:48:35.718Z,61.83
2019-03-19T17:51:07.002Z,62.29
2019-03-19T17:53:38.817Z,62.85
2019-03-19T17:56:10.169Z,62.85
2019-03-19T17:58:41.405Z,62.91
2019-03-19T18:01:17.427Z,63.07
2019-03-19T18:03:45.896Z,63.25
2019-03-19T18:06:17.089Z,63.35
2019-03-19T18:08:48.888Z,63.86
2019-03-19T18:11:20.526Z,64.14
2019-03-19T18:13:51.758Z,64.16
2019-03-19T18:16:23.374Z,64.54
2019-03-19T18:18:54.706Z,64.87
2019-03-19T18:21:26.618Z,65.04
2019-03-19T18:23:58.470Z,65.09
2019-03-19T18:26:30.075Z,65.21
2019-03-19T18:29:02.043Z,65.31
2019-03-19T18:31:33.207Z,65.72
2019-03-19T18:34:10.274Z,65.63
2019-03-19T18:36:37.942Z,65.48
2019-03-19T18:39:10.375Z,65.77
2019-03-19T18:41:42.058Z,65.79
2019-03-19T18:44:13.316Z,66.29
2019-03-19T18:46:44.866Z,66.36
2019-03-19T18:49:16.804Z,66.28
2019-03-19T18:51:48.097Z,67.02
2019-03-19T18:54:19.649Z,66.33
2019-03-19T18:56:50.938Z,67.16
2019-03-19T18:59:22.503Z,67.17
2019-03-19T19:01:53.759Z,67.06
2019-03-19T19:04:26.171Z,67.52
2019-03-19T19:06:58.129Z,67.47
2019-03-19T19:09:29.399Z,67.56
2019-03-19T19:12:00.776Z,67.64
2019-03-19T19:14:32.508Z,68.17
2019-03-19T19:17:03.850Z,67.84
2019-03-19T19:19:35.157Z,68.17
2019-03-19T19:22:06.562Z,68.38
2019-03-19T19:24:38.376Z,68.80
2019-03-19T19:27:10.178Z,69.25
2019-03-19T19:29:41.526Z,68.98
2019-03-19T19:32:13.114Z,68.59
2019-03-19T19:34:44.871Z,68.76
2019-03-19T19:37:16.807Z,68.83
2019-03-19T19:39:48.265Z,68.78
2019-03-19T19:42:19.559Z,68.86
2019-03-19T19:44:50.975Z,69.46
2019-03-19T19:47:22.340Z,69.57
2019-03-19T19:49:53.600Z,69.01
2019-03-19T19:52:25.006Z,69.42
2019-03-19T19:54:56.295Z,69.48
2019-03-19T19:57:27.549Z,69.92
2019-03-19T20:00:01.794Z,69.83
2019-03-19T20:02:32.289Z,70.65
2019-03-19T20:05:03.839Z,70.22
2019-03-19T20:07:35.947Z,69.87
2019-03-19T20:10:10.039Z,70.61
2019-03-19T20:12:41.547Z,70.18
2019-03-19T20:15:13.458Z,70.25
2019-03-19T20:17:45.015Z,70.58
2019-03-19T20:20:18.367Z,71.01
2019-03-19T20:22:49.927Z,70.69
2019-03-19T20:25:21.212Z,70.97
2019-03-19T20:27:52.459Z,71.18
2019-03-19T20:30:23.842Z,71.15
2019-03-19T20:32:55.395Z,71.52
2019-03-19T20:35:26.966Z,71.71
2019-03-19T20:37:58.693Z,72.22
2019-03-19T20:40:30.382Z,73.00
2019-03-19T20:43:02.727Z,73.00
2019-03-19T20:45:34.435Z,73.21
2019-03-19T20:48:05.811Z,73.85
2019-03-19T20:50:37.123Z,74.42
2019-03-19T20:53:08.491Z,74.31
2019-03-19T20:55:39.777Z,74.57
2019-03-19T20:58:12.208Z,73.75
2019-03-19T21:00:43.757Z,72.91
2019-03-19T21:03:15.640Z,72.86
2019-03-19T21:05:47.340Z,74.24
2019-03-19T21:08:18.586Z,74.13
2019-03-19T21:10:50.465Z,73.48
2019-03-19T21:13:22.258Z,72.97
2019-03-19T21:15:53.810Z,73.07
2019-03-19T21:18:25.410Z,73.19
2019-03-19T21:20:57.084Z,72.97
2019-03-19T21:23:28.326Z,73.29
2019-03-19T21:25:59.583Z,73.17
2019-03-19T21:28:31.396Z,73.50
2019-03-19T21:37:27.220Z,73.67
2019-03-19T21:39:58.514Z,74.17
2019-03-19T21:42:30.276Z,75.17
2019-03-19T21:45:01.999Z,74.99
2019-03-19T21:47:33.935Z,74.62
2019-03-19T21:50:05.965Z,74.46
2019-03-19T21:52:39.208Z,74.34
2019-03-19T21:55:14.066Z,74.63
2019-03-19T21:57:45.065Z,74.87
2019-03-19T22:00:18.194Z,74.49
2019-03-19T22:02:49.858Z,75.46
2019-03-19T22:05:21.174Z,75.79
2019-03-19T22:07:53.419Z,75.88
2019-03-19T22:10:24.952Z,75.29
2019-03-19T22:12:56.248Z,75.45
2019-03-19T22:15:27.815Z,75.44
2019-03-19T22:17:59.420Z,75.38
2019-03-19T22:20:31.020Z,75.60
2019-03-19T22:23:02.688Z,77.66
2019-03-19T22:25:33.995Z,77.38
2019-03-19T22:28:05.669Z,77.50
2019-03-19T22:30:37.813Z,77.46
2019-03-19T22:33:09.518Z,77.93
2019-03-19T22:35:41.183Z,76.95
2019-03-19T22:38:12.882Z,76.71
2019-03-19T22:40:44.374Z,76.32
2019-03-19T22:43:15.639Z,76.77
2019-03-19T22:45:46.919Z,77.47
2019-03-19T23:47:25.997Z,79.26
2019-03-19T23:49:57.256Z,79.50
2019-03-19T23:52:28.902Z,78.85
2019-03-19T23:55:00.469Z,79.07
2019-03-19T23:57:32.335Z,78.58
